createdAt,value
2018-12-02T07:47:46.241Z,34.30
2018-12-02T07:50:14.480Z,32.63
2018-12-02T07:52:42.738Z,28.63
2018-12-02T07:55:10.975Z,31.30
2018-12-02T07:57:39.239Z,26.03
2018-12-02T08:00:11.432Z,28.77
2018-12-02T08:02:39.703Z,28.13
2018-12-02T08:05:09.427Z,26.60
2018-12-02T08:07:37.716Z,25.13
2018-12-02T08:10:11.707Z,28.07
2018-12-02T08:12:40.010Z,27.30
2018-12-02T08:15:10.713Z,26.10
2018-12-02T08:17:39.022Z,24.33
2018-12-02T08:20:10.976Z,29.33
2018-12-02T08:22:39.324Z,28.93
2018-12-02T08:25:09.371Z,27.47
2018-12-02T08:27:37.603Z,23.40
2018-12-02T08:30:10.127Z,23.17
2018-12-02T08:32:38.362Z,24.17
2018-12-02T08:35:07.752Z,24.70
2018-12-02T08:37:35.996Z,22.57
2018-12-02T08:40:05.318Z,26.20
2018-12-02T08:42:33.538Z,23.70
2018-12-02T08:45:01.778Z,23.97
2018-12-02T08:47:30.007Z,21.97
2018-12-02T08:49:58.250Z,21.63
2018-12-02T08:52:26.470Z,27.20
2018-12-02T08:54:54.710Z,21.03
2018-12-02T08:57:22.922Z,19.10
2018-12-02T08:59:51.163Z,19.77
2018-12-02T09:02:19.382Z,22.80
2018-12-02T09:04:47.634Z,26.60
2018-12-02T09:07:15.866Z,18.50
2018-12-02T09:09:44.098Z,19.80
2018-12-02T09:12:12.350Z,18.97
2018-12-02T09:14:40.614Z,16.87
2018-12-02T09:17:08.842Z,21.90
2018-12-02T09:19:37.066Z,22.67
2018-12-02T09:22:05.698Z,18.60
2018-12-02T09:24:33.930Z,20.40
2018-12-02T09:27:02.184Z,18.83
2018-12-02T09:29:30.410Z,19.30
2018-12-02T09:31:58.671Z,21.43
2018-12-02T09:34:26.895Z,18.63
2018-12-02T09:36:58.008Z,17.10
2018-12-02T09:39:23.421Z,18.03
2018-12-02T09:41:51.670Z,18.33
2018-12-02T09:44:19.895Z,19.87
2018-12-02T09:46:48.142Z,18.10
2018-12-02T09:49:16.374Z,18.00
2018-12-02T09:51:44.614Z,17.93
2018-12-02T09:54:12.846Z,14.90
2018-12-02T09:56:41.078Z,15.80
2018-12-02T09:59:09.309Z,18.00
2018-12-02T10:01:37.566Z,18.30
2018-12-02T10:04:05.794Z,19.67
2018-12-02T10:06:34.040Z,18.83
2018-12-02T10:09:02.267Z,14.83
2018-12-02T10:11:30.531Z,17.70
2018-12-02T10:13:58.782Z,14.47
2018-12-02T10:16:27.059Z,15.13
2018-12-02T10:18:55.292Z,15.33
2018-12-02T10:21:23.530Z,15.23
2018-12-02T10:23:51.779Z,15.70
2018-12-02T10:26:20.007Z,14.53
2018-12-02T10:28:48.270Z,13.57
2018-12-02T10:31:16.531Z,16.47
2018-12-02T10:33:44.776Z,15.47
2018-12-02T10:36:13.043Z,16.80
2018-12-02T10:38:41.290Z,14.93
2018-12-02T10:41:09.530Z,13.27
2018-12-02T10:43:37.778Z,15.73
2018-12-02T10:46:05.997Z,14.47
2018-12-02T10:48:34.250Z,14.23
2018-12-02T10:51:02.492Z,11.87
2018-12-02T10:53:30.737Z,13.23
2018-12-02T10:55:59.882Z,15.63
2018-12-02T10:58:32.269Z,13.23
2018-12-02T11:01:06.826Z,17.03
2018-12-02T11:03:35.083Z,15.83
2018-12-02T11:06:03.383Z,13.23
2018-12-02T11:08:31.618Z,13.73
2018-12-02T11:10:59.842Z,13.30
2018-12-02T11:13:28.086Z,13.43
2018-12-02T11:15:56.317Z,14.07
2018-12-02T11:18:24.558Z,13.33
2018-12-02T11:20:52.778Z,14.77
2018-12-02T11:23:21.010Z,11.73
2018-12-02T11:25:49.223Z,14.77
2018-12-02T11:28:17.462Z,11.70
2018-12-02T11:30:45.698Z,11.63
2018-12-02T11:33:13.936Z,10.43
2018-12-02T11:35:42.150Z,14.23
2018-12-02T11:38:10.378Z,14.07
2018-12-02T11:40:39.518Z,13.23
2018-12-02T11:43:08.450Z,14.43
2018-12-02T11:45:36.815Z,12.00
2018-12-02T11:48:05.662Z,10.97
2018-12-02T11:50:33.922Z,11.37
2018-12-02T11:53:02.167Z,10.30
2018-12-02T11:55:30.412Z,10.83
2018-12-02T11:57:58.630Z,11.93
2018-12-02T12:00:28.919Z,9.80
2018-12-02T12:02:57.877Z,8.70
2018-12-02T12:05:26.153Z,10.60
2018-12-02T12:07:54.414Z,10.80
2018-12-02T12:10:23.669Z,9.60
2018-12-02T12:12:52.722Z,8.80
2018-12-02T12:15:22.963Z,8.53
2018-12-02T12:17:51.210Z,9.13
2018-12-02T12:20:36.922Z,12.07
2018-12-02T12:23:05.490Z,9.40
2018-12-02T12:25:33.731Z,8.10
2018-12-02T12:28:01.943Z,10.97
2018-12-02T12:30:31.367Z,10.07
2018-12-02T12:32:59.810Z,9.33
2018-12-02T12:35:28.058Z,10.27
2018-12-02T12:37:56.274Z,12.20
2018-12-02T12:40:26.926Z,14.53
2018-12-02T12:42:58.065Z,10.13
2018-12-02T12:45:26.310Z,9.07
2018-12-02T12:47:54.542Z,10.90
2018-12-02T12:50:22.798Z,11.60
2018-12-02T12:52:51.037Z,14.30
2018-12-02T12:55:19.266Z,10.60
2018-12-02T12:57:47.519Z,11.93
2018-12-02T13:00:17.724Z,9.40
2018-12-02T13:02:46.183Z,13.83
2018-12-02T13:05:24.337Z,12.47
2018-12-02T13:07:52.914Z,9.93
2018-12-02T13:10:21.139Z,8.83
2018-12-02T13:12:49.383Z,17.40
2018-12-02T13:15:19.772Z,15.13
2018-12-02T13:17:51.962Z,19.13
2018-12-02T13:20:20.214Z,12.33
2018-12-02T13:22:48.455Z,12.30
2018-12-02T13:25:16.798Z,13.03
2018-12-02T13:27:45.880Z,12.03
2018-12-02T13:30:15.903Z,12.10
2018-12-02T13:32:45.303Z,13.17
2018-12-02T13:35:13.606Z,14.87
2018-12-02T13:37:41.858Z,18.53
2018-12-02T13:40:17.829Z,12.70
2018-12-02T13:42:51.295Z,15.00
2018-12-02T13:45:21.011Z,15.33
2018-12-02T13:47:49.246Z,16.13
2018-12-02T13:50:18.276Z,16.47
2018-12-02T13:52:47.591Z,17.77
2018-12-02T13:55:19.122Z,25.43
2018-12-02T13:57:47.682Z,24.27
2018-12-02T14:00:19.820Z,20.90
2018-12-02T14:02:51.242Z,21.83
2018-12-02T14:05:19.469Z,22.50
2018-12-02T14:07:47.707Z,22.33
2018-12-02T14:10:16.070Z,28.17
2018-12-02T14:12:46.802Z,70.37
2018-12-02T14:16:26.644Z,26.33
2018-12-02T14:18:56.070Z,26.67
2018-12-02T14:21:24.317Z,22.17
2018-12-02T14:23:52.559Z,23.53
2018-12-02T14:26:22.007Z,30.03
2018-12-02T14:29:00.033Z,24.97
2018-12-02T14:31:29.935Z,28.03
2018-12-02T14:33:58.191Z,26.23
2018-12-02T14:36:26.426Z,27.87
2018-12-02T14:38:54.781Z,25.93
2018-12-02T14:41:23.040Z,28.73
2018-12-02T14:43:51.317Z,32.90
2018-12-02T14:46:19.551Z,28.83
2018-12-02T14:48:47.793Z,27.90
2018-12-02T14:51:16.042Z,29.13
2018-12-02T14:53:44.274Z,26.33
2018-12-02T14:56:12.522Z,30.80
2018-12-02T14:58:40.765Z,31.57
2018-12-02T15:01:09.009Z,30.27
2018-12-02T15:03:37.227Z,31.57
2018-12-02T15:06:05.598Z,30.30
2018-12-02T15:08:33.819Z,32.30
2018-12-02T15:11:02.074Z,30.23
2018-12-02T15:13:30.311Z,37.07
2018-12-02T15:15:58.570Z,34.23
2018-12-02T15:18:26.793Z,31.47
2018-12-02T15:20:55.050Z,30.27
2018-12-02T15:23:23.282Z,28.87
2018-12-02T15:25:51.518Z,33.73
2018-12-02T15:28:19.753Z,34.43
2018-12-02T15:30:48.035Z,32.90
2018-12-02T15:33:16.274Z,33.40
2018-12-02T15:35:44.530Z,32.77
2018-12-02T15:38:12.777Z,29.10
2018-12-02T15:40:41.071Z,34.07
2018-12-02T15:43:09.311Z,30.13
2018-12-02T15:45:37.555Z,30.70
2018-12-02T15:48:05.938Z,27.97
2018-12-02T15:50:34.191Z,29.50
2018-12-02T15:53:02.427Z,31.73
2018-12-02T15:55:31.950Z,28.80
2018-12-02T15:58:01.633Z,29.30
2018-12-02T16:00:32.078Z,31.13
2018-12-02T16:03:00.321Z,30.37
2018-12-02T16:05:28.573Z,29.40
2018-12-02T16:07:56.810Z,37.13
2018-12-02T16:10:25.050Z,27.80
2018-12-02T16:12:53.738Z,29.40
2018-12-02T16:15:23.355Z,30.80
2018-12-02T16:17:51.895Z,27.20
2018-12-02T16:20:22.673Z,26.93
2018-12-02T16:22:50.935Z,28.97
2018-12-02T16:25:19.170Z,31.40
2018-12-02T16:27:47.422Z,30.57
2018-12-02T16:30:19.669Z,29.83
2018-12-02T16:32:50.244Z,28.43
2018-12-02T16:35:18.658Z,33.10
2018-12-02T16:37:48.102Z,28.37
2018-12-02T16:40:18.526Z,28.50
2018-12-02T16:42:46.770Z,29.47
2018-12-02T16:45:16.190Z,28.03
2018-12-02T16:47:45.487Z,25.53
2018-12-02T16:50:18.270Z,34.13
2018-12-02T16:52:46.516Z,30.43
2018-12-02T16:55:17.987Z,29.50
2018-12-02T16:57:52.131Z,28.03
2018-12-02T17:00:24.419Z,28.10
2018-12-02T17:02:52.669Z,30.10
2018-12-02T17:05:20.904Z,33.33
2018-12-02T17:07:49.145Z,25.13
2018-12-02T17:10:17.370Z,28.83
2018-12-02T17:12:45.619Z,31.00
2018-12-02T17:15:14.557Z,30.77
2018-12-02T17:17:42.926Z,31.90
2018-12-02T17:20:12.748Z,29.70
2018-12-02T17:22:41.075Z,31.93
2018-12-02T17:25:10.748Z,35.20
2018-12-02T17:27:39.075Z,32.37
2018-12-02T17:30:16.423Z,34.80
2018-12-02T17:32:44.707Z,34.60
2018-12-02T17:35:12.966Z,30.23
2018-12-02T17:37:41.218Z,30.80
2018-12-02T17:40:15.459Z,35.87
2018-12-02T17:42:43.687Z,33.20
2018-12-02T17:45:11.958Z,29.60
2018-12-02T17:47:40.195Z,26.27
2018-12-02T17:50:11.454Z,31.70
2018-12-02T17:52:39.761Z,30.00
2018-12-02T17:55:08.274Z,29.67
2018-12-02T17:57:36.503Z,29.63
2018-12-02T18:00:09.990Z,31.53
2018-12-02T18:02:38.220Z,28.60
2018-12-02T18:05:10.512Z,29.70
2018-12-02T18:07:38.761Z,30.90
2018-12-02T18:10:09.931Z,35.87
2018-12-02T18:12:38.503Z,34.10
2018-12-02T18:15:09.961Z,33.67
2018-12-02T18:17:38.222Z,31.10
2018-12-02T18:20:08.565Z,35.47
2018-12-02T18:22:36.802Z,33.43
2018-12-02T18:25:07.267Z,34.43
2018-12-02T18:27:35.498Z,30.97
2018-12-02T18:30:04.857Z,31.50
2018-12-02T18:32:33.106Z,36.23
2018-12-02T18:35:01.342Z,36.87
2018-12-02T18:37:29.581Z,39.90
2018-12-02T18:39:57.825Z,38.73
2018-12-02T18:42:26.107Z,35.23
2018-12-02T18:44:54.352Z,33.20
2018-12-02T18:47:22.578Z,37.43
2018-12-02T18:49:50.824Z,37.83
2018-12-02T18:52:19.070Z,37.47
2018-12-02T18:54:47.314Z,37.00
2018-12-02T18:57:15.542Z,40.60
2018-12-02T18:59:43.791Z,38.30
2018-12-02T19:02:12.015Z,39.17
2018-12-02T19:04:40.272Z,36.53
2018-12-02T19:07:08.524Z,35.47
2018-12-02T19:09:36.778Z,47.47
2018-12-02T19:12:05.215Z,36.27
2018-12-02T19:14:33.508Z,31.80
2018-12-02T19:17:01.722Z,37.70
2018-12-02T19:19:29.960Z,34.90
2018-12-02T19:21:58.215Z,36.47
2018-12-02T19:24:26.438Z,43.00
2018-12-02T19:26:54.694Z,36.83
2018-12-02T19:29:22.926Z,29.93
2018-12-02T19:31:51.191Z,27.33
2018-12-02T19:34:19.412Z,27.50
2018-12-02T19:36:51.471Z,31.30
2018-12-02T19:39:19.706Z,29.00
2018-12-02T19:41:47.966Z,31.00
2018-12-02T19:44:16.202Z,33.47
2018-12-02T19:46:44.448Z,34.63
2018-12-02T19:49:12.693Z,29.90
2018-12-02T19:51:40.930Z,33.77
2018-12-02T19:54:09.185Z,32.23
2018-12-02T19:56:37.431Z,27.27
2018-12-02T19:59:05.678Z,27.97
2018-12-02T20:01:33.920Z,26.63
2018-12-02T20:04:02.149Z,27.70
2018-12-02T20:06:30.398Z,28.07
2018-12-02T20:08:58.626Z,29.30
2018-12-02T20:11:26.887Z,32.10
2018-12-02T20:13:55.142Z,26.87
2018-12-02T20:16:23.410Z,27.33
2018-12-02T20:18:51.670Z,29.07
2018-12-02T20:21:21.478Z,26.43
2018-12-02T20:23:55.239Z,24.17
2018-12-02T20:26:23.510Z,28.77
2018-12-02T20:28:54.782Z,27.80
2018-12-02T20:31:25.130Z,29.93
2018-12-02T20:36:27.025Z,28.37
2018-12-02T20:38:55.470Z,32.53
2018-12-02T20:41:23.737Z,29.40
2018-12-02T20:43:52.018Z,30.93
2018-12-02T20:46:20.245Z,30.27
2018-12-02T20:48:48.523Z,29.33
2018-12-02T20:51:16.774Z,32.07
2018-12-02T20:53:45.026Z,28.03
2018-12-02T20:56:13.258Z,28.87
2018-12-02T20:58:41.506Z,31.87
2018-12-02T21:01:09.735Z,32.87
2018-12-02T21:03:40.306Z,33.83
2018-12-02T21:06:12.347Z,34.70
2018-12-02T21:08:40.590Z,36.00
2018-12-02T21:11:08.826Z,39.70
2018-12-02T21:13:37.078Z,35.00
2018-12-02T21:16:06.068Z,34.30
2018-12-02T21:18:34.322Z,32.97
2018-12-02T21:21:02.542Z,34.43
2018-12-02T21:23:30.794Z,33.97
